Airfield :
LOGIN :

Register | Disclaimer

   EN    FR    IT 

 










Legend :    VFR   Marginal VFR   IFR   Intensive IFR   Very Intensive IFR
Visi :
Ceiling :
>= 8 km
>= 3000ft
5 to 8 km
1000 to 3000 ft
1500m to 5 km
500 to 1000 ft
800 to 1500m
200 to 500 ft
< 800m
< 200 ft
Symbols :   Thunderstorms  Fog  Heavy snow  Heavy precipitations  Wind > 20 kt
SIGMETs :     Misc.  Thunderstorms  Icing  Turbulence  Mountain Waves  Volcanic Ashes






- Airport Elevation : 75 ft
- IATA code : YEO


EGDY - RNAS Yeovilton

CURRENT METAR :
  • 021722Z 31011KT 9999 FEW025 19/12 Q1014 NOSIG RMK BLU BLU

EXPIRED METARs :
  • 021650Z 26010KT 9999 SCT028 19/13 Q1014 NOSIG RMK BLU BLU
  • 021621Z 25008KT 9999 FEW024 SCT028 19/14 Q1014 NOSIG RMK BLU BLU
  • 021550Z 26006KT 9999 FEW022 SCT026 17/14 Q1014 NOSIG RMK BLU BLU
  • 021521Z 31007KT 9999 -SHRA FEW022 SCT026 17/13 Q1013 NOSIG RMK BLU BLU
  • 021450Z 27007KT 9999 FEW022 SCT026 17/13 Q1013 NOSIG RMK BLU BLU

TAF TAF EGDY
Valid from the 02 at 15:00 until the 03 at 00:00 UTC


021346Z 0215/0224 27010KT 9999 SCT026
TEMPO 0215/0216 7000 -SHRA SCT020



MET'MAP, your aeronautical weather chart ! - Copyright ORBIFLY December 2007 - Disclaimer

ORBIFLY MET'MAP TEAM :

Programming & Development : Alexandra Zaïnal
Concept & original design : Baudouin d'Aumeries
Assistance for programming : Marc-Olivier Méhu
Technical & hardware support : Manuel Goepfert

Contact : metmap@orbifly.com




SOURCES & CREDITS :

   NOAA